createdAt,value
2022-08-07T00:00:57.050Z,11.11
2022-08-07T00:02:40.681Z,11.11
2022-08-07T00:02:57.037Z,11.11
2022-08-07T00:03:56.048Z,11.11
2022-08-07T00:04:56.071Z,11.09
2022-08-07T00:05:55.999Z,11.09
2022-08-07T00:06:55.978Z,11.06
2022-08-07T00:07:58.492Z,11.06
2022-08-07T00:08:55.977Z,11.03
2022-08-07T00:10:19.023Z,11.02
2022-08-07T00:10:58.375Z,10.99
2022-08-07T00:11:58.758Z,10.99
2022-08-07T00:12:59.747Z,10.98
2022-08-07T00:13:56.876Z,10.95
2022-08-07T00:14:55.896Z,10.98
2022-08-07T00:15:55.869Z,10.98
2022-08-07T00:16:55.839Z,10.98
2022-08-07T00:17:55.819Z,10.94
2022-08-07T00:18:55.836Z,10.93
2022-08-07T00:20:01.473Z,10.90
2022-08-07T00:20:57.506Z,10.88
2022-08-07T00:22:02.323Z,10.86
2022-08-07T00:22:56.758Z,10.84
2022-08-07T00:23:55.759Z,10.81
2022-08-07T00:24:55.756Z,10.80
2022-08-07T00:26:00.363Z,10.80
2022-08-07T00:27:06.215Z,10.80
2022-08-07T00:27:56.745Z,10.78
2022-08-07T00:28:57.007Z,10.81
2022-08-07T00:29:55.666Z,10.81
2022-08-07T00:30:55.649Z,10.78
2022-08-07T00:31:55.638Z,10.76
2022-08-07T00:32:55.673Z,10.73
2022-08-07T00:33:55.612Z,10.73
2022-08-07T00:34:55.651Z,10.72
2022-08-07T00:35:55.580Z,10.69
2022-08-07T00:36:55.596Z,10.66
2022-08-07T00:37:55.579Z,10.68
2022-08-07T00:38:55.546Z,10.65
2022-08-07T00:39:55.584Z,10.65
2022-08-07T00:40:55.529Z,10.66
2022-08-07T00:42:01.846Z,10.63
2022-08-07T00:42:56.517Z,10.65
2022-08-07T00:44:01.747Z,10.65
2022-08-07T00:44:56.499Z,10.63
2022-08-07T00:45:55.459Z,10.65
2022-08-07T00:46:55.448Z,10.63
2022-08-07T00:48:08.814Z,10.62
2022-08-07T00:48:56.495Z,10.58
2022-08-07T00:50:20.545Z,10.58
2022-08-07T00:50:56.410Z,10.62
2022-08-07T00:51:57.196Z,10.62
2022-08-07T00:52:55.407Z,10.60
2022-08-07T00:53:55.992Z,10.58
2022-08-07T00:54:55.337Z,10.57
2022-08-07T00:56:00.678Z,10.55
2022-08-07T00:56:56.322Z,10.52
2022-08-07T00:57:56.341Z,10.49
2022-08-07T00:58:55.281Z,10.49
2022-08-07T00:59:55.287Z,10.47
2022-08-07T01:00:55.272Z,10.46
2022-08-07T01:01:57.806Z,10.46
2022-08-07T01:02:55.238Z,10.44
2022-08-07T01:04:00.231Z,10.44
2022-08-07T01:04:58.335Z,10.42
2022-08-07T01:05:55.189Z,10.39
2022-08-07T01:06:55.176Z,10.39
2022-08-07T01:07:55.263Z,10.39
2022-08-07T01:08:55.784Z,10.43
2022-08-07T01:10:06.016Z,10.39
2022-08-07T01:10:56.575Z,10.38
2022-08-07T01:12:27.578Z,10.36
2022-08-07T01:12:56.126Z,10.35
2022-08-07T01:13:55.995Z,10.34
2022-08-07T01:14:57.141Z,10.36
2022-08-07T01:16:05.727Z,10.36
2022-08-07T01:16:56.055Z,10.36
2022-08-07T01:17:55.057Z,10.36
2022-08-07T01:18:55.031Z,10.32
2022-08-07T01:19:55.009Z,10.28
2022-08-07T01:20:59.547Z,10.26
2022-08-07T01:21:55.334Z,10.25
2022-08-07T01:23:09.108Z,10.22
2022-08-07T01:23:55.966Z,10.22
2022-08-07T01:24:54.938Z,10.17
2022-08-07T01:25:56.307Z,10.17
2022-08-07T01:26:54.916Z,10.17
2022-08-07T01:27:54.908Z,10.13
2022-08-07T01:28:54.884Z,10.14
2022-08-07T01:29:54.879Z,10.14
2022-08-07T01:30:54.857Z,10.14
2022-08-07T01:31:54.846Z,10.14
2022-08-07T01:32:54.848Z,10.16
2022-08-07T01:33:55.498Z,10.14
2022-08-07T01:34:54.832Z,10.11
2022-08-07T01:36:06.062Z,10.10
2022-08-07T01:36:58.289Z,10.07
2022-08-07T01:37:54.809Z,10.07
2022-08-07T01:38:54.764Z,10.06
2022-08-07T01:39:54.841Z,10.04
2022-08-07T01:40:54.752Z,10.06
2022-08-07T01:42:07.519Z,10.06
2022-08-07T01:42:58.637Z,10.06
2022-08-07T01:43:54.705Z,10.04
2022-08-07T01:44:54.677Z,10.02
2022-08-07T01:45:54.783Z,10.04
2022-08-07T01:46:54.667Z,10.02
2022-08-07T01:48:19.710Z,10.01
2022-08-07T01:48:55.623Z,9.99
2022-08-07T01:49:54.888Z,9.98
2022-08-07T01:50:55.531Z,9.98
2022-08-07T01:52:03.833Z,9.96
2022-08-07T01:52:55.605Z,9.96
2022-08-07T01:54:08.798Z,9.95
2022-08-07T01:54:55.566Z,9.93
2022-08-07T01:55:54.566Z,9.92
2022-08-07T01:56:55.148Z,9.91
2022-08-07T01:58:06.112Z,9.91
2022-08-07T01:58:55.506Z,9.92
2022-08-07T01:59:54.574Z,9.93
2022-08-07T02:00:57.999Z,9.92
2022-08-07T02:02:01.617Z,9.91
2022-08-07T02:03:19.035Z,9.89
2022-08-07T02:03:55.489Z,9.88
2022-08-07T02:04:56.565Z,9.85
2022-08-07T02:06:00.836Z,9.86
2022-08-07T02:06:55.401Z,9.86
2022-08-07T02:07:54.433Z,9.86
2022-08-07T02:08:54.579Z,9.86
2022-08-07T02:09:58.771Z,9.83
2022-08-07T02:10:55.246Z,9.85
2022-08-07T02:12:03.572Z,9.85
2022-08-07T02:12:55.315Z,9.85
2022-08-07T02:13:57.316Z,9.85
2022-08-07T02:14:54.283Z,9.83
2022-08-07T02:15:54.282Z,9.83
2022-08-07T02:16:54.295Z,9.80
2022-08-07T02:17:54.287Z,9.81
2022-08-07T02:18:54.242Z,9.80
2022-08-07T02:20:07.525Z,9.78
2022-08-07T02:20:57.282Z,9.78
2022-08-07T02:21:56.705Z,9.77
2022-08-07T02:22:55.128Z,9.78
2022-08-07T02:23:54.173Z,9.78
2022-08-07T02:24:54.152Z,9.80
2022-08-07T02:26:30.698Z,9.78
2022-08-07T02:26:55.133Z,9.78
2022-08-07T02:27:54.130Z,9.81
2022-08-07T02:28:54.131Z,9.81
2022-08-07T02:29:54.990Z,9.81
2022-08-07T02:30:54.075Z,9.81
2022-08-07T02:31:54.625Z,9.80
2022-08-07T02:33:03.658Z,9.80
2022-08-07T02:34:03.583Z,9.78
2022-08-07T02:34:55.024Z,9.77
2022-08-07T02:36:30.672Z,9.80
2022-08-07T02:36:54.999Z,9.80
2022-08-07T02:37:53.999Z,9.81
2022-08-07T02:38:56.781Z,9.81
2022-08-07T02:40:02.324Z,9.81
2022-08-07T02:40:56.001Z,9.81
2022-08-07T02:41:54.484Z,9.80
2022-08-07T02:42:53.930Z,9.78
2022-08-07T02:43:53.912Z,9.78
2022-08-07T02:44:53.901Z,9.80
2022-08-07T02:45:58.876Z,9.80
2022-08-07T02:46:54.860Z,9.78
2022-08-07T02:47:53.865Z,9.81
2022-08-07T02:48:54.728Z,9.80
2022-08-07T02:49:58.784Z,9.78
2022-08-07T02:50:54.819Z,9.78
2022-08-07T02:51:53.817Z,9.75
2022-08-07T02:52:53.812Z,9.74
2022-08-07T02:53:54.819Z,9.73
2022-08-07T02:54:53.760Z,9.74
2022-08-07T02:56:03.291Z,9.74
2022-08-07T02:56:54.744Z,9.73
2022-08-07T02:57:53.744Z,9.73
2022-08-07T02:58:54.253Z,9.73
2022-08-07T02:59:55.148Z,9.71
2022-08-07T03:00:54.718Z,9.71
2022-08-07T03:01:55.481Z,9.71
2022-08-07T03:02:55.127Z,9.68
2022-08-07T03:03:53.656Z,9.68
2022-08-07T03:04:53.640Z,9.67
2022-08-07T03:05:53.802Z,9.65
2022-08-07T03:06:53.619Z,9.65
2022-08-07T03:08:06.835Z,9.65
2022-08-07T03:08:54.577Z,9.65
2022-08-07T03:09:53.589Z,9.63
2022-08-07T03:10:53.560Z,9.60
2022-08-07T03:11:57.992Z,9.60
2022-08-07T03:12:54.533Z,9.59
2022-08-07T03:13:57.709Z,9.59
2022-08-07T03:14:54.502Z,9.58
2022-08-07T03:15:56.680Z,9.59
2022-08-07T03:16:54.508Z,9.59
2022-08-07T03:17:54.631Z,9.59
2022-08-07T03:18:53.448Z,9.58
2022-08-07T03:19:54.608Z,9.55
2022-08-07T03:20:53.428Z,9.55
2022-08-07T03:21:53.420Z,9.53
2022-08-07T03:22:53.406Z,9.52
2022-08-07T03:24:20.820Z,9.53
2022-08-07T03:24:54.406Z,9.53
2022-08-07T03:25:58.359Z,9.55
2022-08-07T03:26:58.306Z,9.52
2022-08-07T03:28:09.024Z,9.49
2022-08-07T03:28:54.335Z,9.48
2022-08-07T03:29:53.304Z,9.45
2022-08-07T03:30:53.286Z,9.42
2022-08-07T03:31:53.288Z,9.42
2022-08-07T03:32:58.754Z,9.41
2022-08-07T03:33:54.261Z,9.38
2022-08-07T03:35:16.980Z,9.40
2022-08-07T03:35:54.274Z,9.40
2022-08-07T03:36:53.789Z,9.40
2022-08-07T03:37:55.078Z,9.38
2022-08-07T03:38:53.187Z,9.40
2022-08-07T03:39:59.464Z,9.38
2022-08-07T03:40:57.358Z,9.37
2022-08-07T03:41:53.330Z,9.35
2022-08-07T03:42:53.127Z,9.32
2022-08-07T03:43:57.487Z,9.31
2022-08-07T03:44:57.820Z,9.30
2022-08-07T03:45:54.123Z,9.31
2022-08-07T03:47:11.300Z,9.32
2022-08-07T03:47:54.077Z,9.34
2022-08-07T03:49:03.067Z,9.31
2022-08-07T03:49:54.043Z,9.31
2022-08-07T03:50:57.778Z,9.32
2022-08-07T03:51:55.126Z,9.31
2022-08-07T03:52:54.000Z,9.32
2022-08-07T03:54:32.990Z,9.31
2022-08-07T03:54:57.396Z,9.32
2022-08-07T03:56:04.100Z,9.34
2022-08-07T03:57:03.387Z,9.34
2022-08-07T03:58:33.518Z,9.34
2022-08-07T03:59:07.889Z,9.35
2022-08-07T04:00:01.660Z,9.34
2022-08-07T04:00:56.999Z,9.34
2022-08-07T04:01:53.957Z,9.32
2022-08-07T04:02:52.864Z,9.32
2022-08-07T04:03:55.161Z,9.32
2022-08-07T04:04:52.846Z,9.32
2022-08-07T04:05:52.843Z,9.31
2022-08-07T04:06:54.078Z,9.31
2022-08-07T04:07:52.805Z,9.30
2022-08-07T04:08:52.832Z,9.26
2022-08-07T04:09:52.812Z,9.26
2022-08-07T04:10:53.912Z,9.27
2022-08-07T04:12:24.267Z,9.30
2022-08-07T04:12:53.743Z,9.30
2022-08-07T04:14:33.079Z,9.30
2022-08-07T04:14:53.710Z,9.32
2022-08-07T04:15:52.706Z,9.35
2022-08-07T04:16:58.499Z,9.35
2022-08-07T04:18:58.078Z,9.35
2022-08-07T04:18:59.067Z,9.35
2022-08-07T04:19:54.415Z,9.38
2022-08-07T04:20:54.645Z,9.40
2022-08-07T04:21:59.104Z,9.42
2022-08-07T04:23:01.756Z,9.44
2022-08-07T04:24:07.296Z,9.48
2022-08-07T04:24:53.575Z,9.48
2022-08-07T04:25:52.578Z,9.49
2022-08-07T04:26:52.562Z,9.48
2022-08-07T04:27:59.302Z,9.49
2022-08-07T04:28:53.527Z,9.52
2022-08-07T04:30:01.608Z,9.52
2022-08-07T04:30:56.711Z,9.55
2022-08-07T04:32:02.984Z,9.56
2022-08-07T04:32:58.429Z,9.58
2022-08-07T04:33:54.992Z,9.60
2022-08-07T04:34:52.465Z,9.65
2022-08-07T04:35:53.997Z,9.68
2022-08-07T04:36:52.445Z,9.70
2022-08-07T04:38:03.587Z,9.73
2022-08-07T04:38:53.406Z,9.75
2022-08-07T04:39:52.439Z,9.75
2022-08-07T04:40:56.786Z,9.83
2022-08-07T04:41:52.364Z,9.86
2022-08-07T04:42:52.544Z,9.91
2022-08-07T04:44:11.964Z,9.92
2022-08-07T04:44:54.394Z,9.95
2022-08-07T04:46:01.371Z,9.99
2022-08-07T04:47:03.912Z,10.06
2022-08-07T04:48:01.037Z,10.10
2022-08-07T04:48:53.265Z,10.17
2022-08-07T04:50:03.476Z,10.24
2022-08-07T04:50:54.012Z,10.42
2022-08-07T04:51:52.247Z,10.73
2022-08-07T04:52:52.833Z,11.16
2022-08-07T04:54:05.474Z,11.66
2022-08-07T04:54:53.191Z,12.18
2022-08-07T04:58:11.092Z,13.24
2022-08-07T04:58:14.419Z,12.73
2022-08-07T04:58:14.864Z,13.75
2022-08-07T05:00:07.897Z,14.24
2022-08-07T05:00:09.732Z,14.74
2022-08-07T05:00:53.130Z,15.19
2022-08-07T05:01:52.129Z,15.62
2022-08-07T05:02:52.092Z,16.10
2022-08-07T05:04:06.392Z,16.51
2022-08-07T05:04:53.055Z,16.92
2022-08-07T05:05:57.243Z,17.38
2022-08-07T05:06:53.447Z,17.77
2022-08-07T05:07:52.065Z,18.19
2022-08-07T05:09:00.688Z,18.60
2022-08-07T05:09:53.011Z,18.96
2022-08-07T05:10:58.344Z,19.31
2022-08-07T05:11:58.165Z,19.65
2022-08-07T05:12:55.244Z,19.97
2022-08-07T05:14:54.136Z,20.27
2022-08-07T05:15:04.541Z,20.64
2022-08-07T05:15:53.593Z,20.93
2022-08-07T05:16:52.621Z,21.27
2022-08-07T05:17:55.268Z,21.59
2022-08-07T05:18:51.883Z,21.91
2022-08-07T05:19:51.863Z,22.17
2022-08-07T05:20:51.838Z,22.48
2022-08-07T05:21:58.925Z,22.78
2022-08-07T05:22:52.972Z,23.06
2022-08-07T05:23:51.813Z,23.37
2022-08-07T05:24:51.804Z,23.67
2022-08-07T05:26:10.882Z,23.94
2022-08-07T05:26:52.787Z,24.16
2022-08-07T05:28:16.043Z,24.37
2022-08-07T05:28:52.746Z,24.60
2022-08-07T05:29:52.122Z,24.87
2022-08-07T05:30:52.264Z,25.12
2022-08-07T05:31:52.966Z,25.35
2022-08-07T05:32:51.692Z,25.57
2022-08-07T05:34:04.791Z,25.78
2022-08-07T05:34:52.667Z,26.08
2022-08-07T05:35:51.710Z,26.41
2022-08-07T05:36:52.987Z,26.69
2022-08-07T05:38:08.739Z,26.83
2022-08-07T05:38:59.954Z,27.02
2022-08-07T05:40:07.157Z,27.23
2022-08-07T05:40:52.661Z,27.43
2022-08-07T05:42:02.238Z,27.69
2022-08-07T05:42:56.347Z,28.01
2022-08-07T05:44:08.298Z,28.17
2022-08-07T05:45:04.512Z,28.36
2022-08-07T05:45:52.573Z,28.61
2022-08-07T05:46:51.520Z,28.91
2022-08-07T05:48:02.077Z,29.18
2022-08-07T05:48:58.128Z,29.29
2022-08-07T05:49:52.470Z,29.37
2022-08-07T05:50:51.457Z,29.55
2022-08-07T05:51:51.458Z,29.74
2022-08-07T05:52:51.437Z,29.99
2022-08-07T05:54:09.727Z,30.26
2022-08-07T05:54:55.872Z,30.46
2022-08-07T05:56:03.386Z,30.59
2022-08-07T05:56:52.443Z,30.57
2022-08-07T05:57:51.380Z,30.67
2022-08-07T05:58:52.858Z,30.82
2022-08-07T05:59:57.903Z,30.86
2022-08-07T06:00:52.343Z,30.96
2022-08-07T06:01:51.420Z,31.00
2022-08-07T06:02:51.310Z,31.05
2022-08-07T06:03:57.283Z,31.12
2022-08-07T06:04:52.283Z,31.40
2022-08-07T06:05:56.524Z,31.57
2022-08-07T06:06:56.784Z,31.82
2022-08-07T06:08:12.339Z,32.02
2022-08-07T06:08:52.233Z,32.29
2022-08-07T06:10:05.764Z,32.61
2022-08-07T06:10:54.865Z,32.88
2022-08-07T06:11:51.207Z,33.06
2022-08-07T06:12:51.181Z,33.07
2022-08-07T06:14:12.538Z,33.03
2022-08-07T06:14:52.163Z,33.07
2022-08-07T06:15:51.161Z,33.05
2022-08-07T06:16:55.800Z,33.03
2022-08-07T06:17:55.131Z,32.98
2022-08-07T06:18:51.740Z,32.90
2022-08-07T06:20:03.286Z,32.98
2022-08-07T06:22:15.241Z,33.15
2022-08-07T06:22:15.858Z,33.00
2022-08-07T06:23:02.326Z,33.37
2022-08-07T06:24:46.378Z,33.56
2022-08-07T06:24:57.723Z,33.57
2022-08-07T06:25:54.412Z,33.70
2022-08-07T06:26:52.036Z,33.96
2022-08-07T06:28:01.467Z,34.15
2022-08-07T06:28:52.887Z,34.27
2022-08-07T06:29:50.966Z,34.34
2022-08-07T06:30:52.862Z,34.33
2022-08-07T06:31:50.977Z,34.49
2022-08-07T06:32:50.938Z,34.69
2022-08-07T06:33:50.915Z,34.90
2022-08-07T06:34:51.002Z,35.05
2022-08-07T06:36:06.682Z,35.07
2022-08-07T06:36:52.548Z,34.98
2022-08-07T06:37:53.010Z,34.88
2022-08-07T06:38:59.248Z,34.87
2022-08-07T06:40:16.777Z,34.94
2022-08-07T06:40:52.011Z,34.81
2022-08-07T06:42:01.616Z,35.02
2022-08-07T06:42:51.830Z,35.21
2022-08-07T06:43:50.796Z,35.36
2022-08-07T06:44:51.808Z,35.52
2022-08-07T06:45:50.784Z,35.52
2022-08-07T06:46:53.829Z,35.68
2022-08-07T06:47:58.922Z,35.69
2022-08-07T06:48:51.739Z,35.46
2022-08-07T06:49:58.635Z,35.40
2022-08-07T06:50:51.727Z,35.43
2022-08-07T06:51:50.719Z,35.39
2022-08-07T06:52:52.990Z,35.37
2022-08-07T06:55:33.378Z,35.58
2022-08-07T06:55:34.246Z,35.68
2022-08-07T06:56:00.105Z,35.78
2022-08-07T06:56:51.691Z,35.77
2022-08-07T06:57:56.378Z,35.61
2022-08-07T07:00:12.385Z,35.25
2022-08-07T07:00:12.928Z,35.47
2022-08-07T07:00:52.795Z,35.15
2022-08-07T07:01:51.079Z,35.18
2022-08-07T07:02:54.039Z,34.95
2022-08-07T07:03:55.151Z,34.60
2022-08-07T07:04:54.720Z,34.40
2022-08-07T07:06:03.253Z,34.38
2022-08-07T07:07:00.131Z,34.23
2022-08-07T07:07:59.604Z,34.12
2022-08-07T07:08:51.537Z,34.24
2022-08-07T07:09:50.784Z,34.48
2022-08-07T07:10:56.673Z,34.55
2022-08-07T07:12:07.516Z,34.76
2022-08-07T07:12:53.518Z,35.07
2022-08-07T07:13:58.091Z,35.22
2022-08-07T07:14:51.451Z,34.95
2022-08-07T07:15:51.870Z,34.93
2022-08-07T07:16:51.178Z,35.25
2022-08-07T07:17:52.229Z,35.52
2022-08-07T07:18:50.384Z,35.76
2022-08-07T07:19:57.774Z,35.99
2022-08-07T07:20:51.367Z,36.18
2022-08-07T07:22:05.348Z,36.08
2022-08-07T07:24:06.409Z,35.71
2022-08-07T07:24:08.734Z,35.89
2022-08-07T07:24:58.390Z,35.64
2022-08-07T07:26:32.443Z,35.89
2022-08-07T07:26:52.253Z,35.99
2022-08-07T07:27:55.487Z,35.89
2022-08-07T07:29:56.608Z,35.91
2022-08-07T07:30:09.182Z,36.11
2022-08-07T07:30:51.264Z,36.34
2022-08-07T07:31:50.218Z,36.44
2022-08-07T07:32:50.254Z,36.18
2022-08-07T07:33:56.474Z,36.13
2022-08-07T07:34:51.189Z,36.16
2022-08-07T07:36:04.605Z,36.33
2022-08-07T07:36:54.004Z,36.52
2022-08-07T07:38:02.926Z,36.62
2022-08-07T07:38:51.131Z,36.57
2022-08-07T07:39:54.993Z,36.53
2022-08-07T07:40:51.121Z,36.74
2022-08-07T07:41:50.351Z,36.89
2022-08-07T07:42:54.333Z,36.96
2022-08-07T07:44:16.762Z,37.11
2022-08-07T07:44:51.070Z,37.25
2022-08-07T07:46:36.936Z,37.30
2022-08-07T07:46:57.283Z,37.16
2022-08-07T07:47:52.758Z,37.09
2022-08-07T07:48:50.053Z,36.68
2022-08-07T07:50:35.668Z,36.43
2022-08-07T07:50:51.008Z,36.31
2022-08-07T07:51:58.531Z,36.15
2022-08-07T07:52:50.964Z,36.21
2022-08-07T07:53:52.050Z,36.46
2022-08-07T07:54:51.500Z,36.44
2022-08-07T07:55:56.192Z,36.05
2022-08-07T07:56:50.923Z,35.66
2022-08-07T07:57:53.149Z,35.37
2022-08-07T07:58:50.627Z,35.10
2022-08-07T07:59:52.604Z,35.00
2022-08-07T08:00:54.057Z,34.93
2022-08-07T08:02:03.296Z,34.84
2022-08-07T08:03:04.916Z,34.83
2022-08-07T08:04:05.955Z,34.78
2022-08-07T08:04:50.911Z,34.75
2022-08-07T08:05:54.372Z,34.88
2022-08-07T08:06:52.202Z,35.06
2022-08-07T08:07:59.892Z,35.25
2022-08-07T08:08:50.779Z,35.28
2022-08-07T08:09:52.476Z,35.18
2022-08-07T08:10:50.800Z,35.03
2022-08-07T08:12:02.245Z,34.65
2022-08-07T08:12:59.231Z,34.46
2022-08-07T08:13:54.754Z,34.34
2022-08-07T08:14:49.715Z,34.40
2022-08-07T08:15:59.118Z,34.46
2022-08-07T08:16:50.936Z,34.43
2022-08-07T08:18:17.943Z,34.58
2022-08-07T08:18:50.666Z,34.67
2022-08-07T08:20:17.733Z,34.83
2022-08-07T08:20:50.639Z,34.81
2022-08-07T08:21:55.375Z,34.83
2022-08-07T08:22:54.097Z,34.87
2022-08-07T08:23:50.611Z,34.95
2022-08-07T08:24:51.310Z,35.03
2022-08-07T08:25:50.584Z,34.84
2022-08-07T08:26:50.489Z,34.50
2022-08-07T08:27:56.475Z,34.19
2022-08-07T08:28:50.637Z,33.89
2022-08-07T08:29:55.594Z,33.68
2022-08-07T08:30:50.963Z,33.65
2022-08-07T08:31:58.864Z,33.87
2022-08-07T08:32:50.493Z,33.97
2022-08-07T08:33:55.563Z,33.92
2022-08-07T08:34:50.455Z,33.89
2022-08-07T08:35:50.009Z,34.00
2022-08-07T08:36:49.433Z,34.24
2022-08-07T08:38:01.311Z,34.43
2022-08-07T08:38:50.407Z,34.37
2022-08-07T08:39:54.994Z,34.18
2022-08-07T08:40:50.395Z,33.97
2022-08-07T08:41:57.834Z,33.86
2022-08-07T08:42:51.562Z,33.82
2022-08-07T08:43:58.722Z,34.00
2022-08-07T08:44:50.335Z,34.15
2022-08-07T08:45:59.562Z,34.11
2022-08-07T08:46:50.307Z,34.00
2022-08-07T08:47:52.118Z,33.97
2022-08-07T08:48:50.900Z,33.74
2022-08-07T08:50:04.814Z,33.71
2022-08-07T08:50:51.677Z,33.81
2022-08-07T08:52:14.437Z,33.87
2022-08-07T08:52:53.743Z,33.84
2022-08-07T08:53:49.234Z,33.90
2022-08-07T08:54:49.207Z,33.86
2022-08-07T08:55:53.812Z,33.59
2022-08-07T08:56:50.187Z,33.53
2022-08-07T08:57:49.178Z,33.49
2022-08-07T08:58:50.658Z,33.49
2022-08-07T08:59:50.366Z,33.50
2022-08-07T09:00:52.629Z,33.38
2022-08-07T09:01:49.712Z,33.17
2022-08-07T09:02:49.559Z,32.95
2022-08-07T09:03:52.631Z,32.80
2022-08-07T09:04:49.098Z,32.71
2022-08-07T09:05:49.092Z,32.47
2022-08-07T09:06:49.076Z,32.32
2022-08-07T09:07:57.693Z,32.27
2022-08-07T09:08:50.032Z,32.41
2022-08-07T09:09:49.023Z,32.53
2022-08-07T09:10:50.037Z,32.65
2022-08-07T09:11:55.553Z,32.76
2022-08-07T09:12:53.124Z,32.87
2022-08-07T09:13:49.341Z,32.73
2022-08-07T09:14:50.586Z,32.65
2022-08-07T09:16:25.686Z,32.65
2022-08-07T09:16:49.950Z,32.59
2022-08-07T09:17:59.596Z,32.59
2022-08-07T09:18:53.444Z,32.59
2022-08-07T09:19:53.487Z,32.51
2022-08-07T09:20:58.042Z,32.16
2022-08-07T09:22:10.084Z,31.75
2022-08-07T09:24:32.198Z,31.56
2022-08-07T09:24:33.685Z,31.42
2022-08-07T09:24:59.775Z,31.23
2022-08-07T09:25:53.480Z,31.07
2022-08-07T09:26:51.089Z,31.01
2022-08-07T09:27:59.884Z,31.01
2022-08-07T09:30:00.734Z,31.05
2022-08-07T09:30:06.308Z,31.04
2022-08-07T09:30:54.585Z,30.98
2022-08-07T09:31:49.743Z,31.04
2022-08-07T09:32:48.733Z,31.07
2022-08-07T09:33:57.740Z,31.10
2022-08-07T09:34:54.041Z,31.12
2022-08-07T09:36:04.798Z,31.19
2022-08-07T09:36:49.984Z,31.22
2022-08-07T09:37:54.051Z,31.22
2022-08-07T09:38:50.151Z,31.23
2022-08-07T09:39:54.266Z,31.20
2022-08-07T09:40:50.171Z,31.18
2022-08-07T09:41:58.638Z,31.18
2022-08-07T09:42:50.371Z,30.96
2022-08-07T09:44:06.000Z,30.82
2022-08-07T09:47:24.969Z,30.70
2022-08-07T09:47:49.987Z,30.10
2022-08-07T09:47:50.581Z,30.45
2022-08-07T09:48:01.681Z,29.88
2022-08-07T09:49:59.701Z,29.78
2022-08-07T09:50:01.045Z,29.66
2022-08-07T09:50:51.414Z,29.48
2022-08-07T09:52:09.972Z,29.44
2022-08-07T09:52:51.824Z,29.58
2022-08-07T09:53:56.118Z,29.76
2022-08-07T09:54:49.459Z,29.88
2022-08-07T09:56:04.741Z,30.00
2022-08-07T09:56:49.441Z,30.19
2022-08-07T09:57:48.435Z,30.21
2022-08-07T09:58:48.769Z,30.06
2022-08-07T10:00:00.754Z,29.94
2022-08-07T10:00:50.560Z,29.94
2022-08-07T10:01:51.326Z,29.70
2022-08-07T10:02:55.072Z,29.12
2022-08-07T10:04:05.163Z,28.64
2022-08-07T10:04:53.399Z,28.54
2022-08-07T10:05:59.407Z,28.72
2022-08-07T10:06:55.716Z,28.83
2022-08-07T10:07:53.056Z,28.98
2022-08-07T10:08:49.538Z,29.21
2022-08-07T10:10:01.050Z,29.36
2022-08-07T10:11:17.027Z,29.33
2022-08-07T10:12:02.101Z,29.48
2022-08-07T10:12:53.309Z,29.62
2022-08-07T10:14:00.458Z,29.73
2022-08-07T10:14:55.142Z,29.79
2022-08-07T10:15:49.185Z,29.74
2022-08-07T10:16:48.230Z,29.73
2022-08-07T10:18:01.804Z,29.71
2022-08-07T10:18:49.202Z,29.54
2022-08-07T10:19:48.153Z,29.45
2022-08-07T10:20:50.194Z,29.49
2022-08-07T10:22:16.332Z,29.42
2022-08-07T10:22:50.820Z,29.42
2022-08-07T10:24:05.620Z,29.45
2022-08-07T10:24:49.086Z,29.44
2022-08-07T10:25:48.080Z,29.36
2022-08-07T10:26:53.349Z,29.33
2022-08-07T10:27:48.038Z,29.36
2022-08-07T10:28:49.392Z,29.42
2022-08-07T10:29:51.757Z,29.47
2022-08-07T10:30:49.018Z,29.45
2022-08-07T10:31:49.635Z,29.41
2022-08-07T10:32:53.306Z,29.35
2022-08-07T10:34:14.471Z,29.26
2022-08-07T10:34:48.998Z,29.23
2022-08-07T10:35:57.514Z,29.23
2022-08-07T10:36:48.942Z,29.20
2022-08-07T10:38:00.248Z,29.25
2022-08-07T10:38:49.961Z,29.39
2022-08-07T10:40:03.363Z,29.54
2022-08-07T10:40:48.867Z,29.58
2022-08-07T10:41:54.507Z,29.73
2022-08-07T10:42:50.000Z,29.81
2022-08-07T10:43:47.859Z,29.74
2022-08-07T10:44:47.828Z,29.76
2022-08-07T10:45:57.995Z,29.73
2022-08-07T10:46:48.790Z,29.70
2022-08-07T10:47:53.929Z,29.63
2022-08-07T10:48:48.813Z,29.69
2022-08-07T10:49:50.795Z,29.74
2022-08-07T10:50:50.128Z,29.64
2022-08-07T10:52:01.801Z,29.54
2022-08-07T10:52:51.452Z,29.49
2022-08-07T10:53:47.717Z,29.62
2022-08-07T10:54:53.366Z,29.62
2022-08-07T10:55:48.693Z,29.57
2022-08-07T10:56:47.662Z,29.63
2022-08-07T10:57:56.033Z,29.70
2022-08-07T10:58:59.424Z,29.82
2022-08-07T10:59:48.672Z,29.86
2022-08-07T11:00:50.165Z,29.74
2022-08-07T11:01:51.515Z,29.70
2022-08-07T11:02:49.300Z,29.69
2022-08-07T11:03:52.804Z,29.76
2022-08-07T11:04:48.585Z,29.66
2022-08-07T11:05:50.554Z,29.58
2022-08-07T11:06:47.570Z,29.57
2022-08-07T11:07:58.550Z,29.54
2022-08-07T11:08:48.526Z,29.49
2022-08-07T11:10:07.341Z,29.49
2022-08-07T11:10:52.383Z,29.52
2022-08-07T11:11:51.967Z,29.47
2022-08-07T11:12:49.110Z,29.44
2022-08-07T11:14:43.503Z,29.42
2022-08-07T11:14:57.493Z,29.37
2022-08-07T11:15:54.561Z,29.39
2022-08-07T11:16:52.750Z,29.41
2022-08-07T11:17:48.722Z,29.39
2022-08-07T11:18:50.734Z,29.33
2022-08-07T11:19:47.397Z,29.23
2022-08-07T11:20:47.367Z,29.17
2022-08-07T11:21:47.379Z,29.10
2022-08-07T11:22:47.344Z,29.12
2022-08-07T11:23:48.457Z,29.14
2022-08-07T11:24:47.355Z,29.07
2022-08-07T11:25:49.916Z,29.05
2022-08-07T11:26:50.120Z,28.98
2022-08-07T11:28:01.410Z,28.76
2022-08-07T11:28:55.257Z,28.73
2022-08-07T11:30:09.963Z,28.80
2022-08-07T11:30:48.256Z,28.91
2022-08-07T11:31:47.230Z,29.02
2022-08-07T11:32:47.287Z,29.05
2022-08-07T11:33:55.397Z,29.03
2022-08-07T11:34:48.198Z,29.03
2022-08-07T11:35:59.639Z,29.10
2022-08-07T11:36:49.654Z,29.21
2022-08-07T11:38:09.954Z,29.35
2022-08-07T11:38:50.668Z,29.42
2022-08-07T11:40:01.006Z,29.44
2022-08-07T11:40:49.807Z,29.48
2022-08-07T11:42:02.393Z,29.60
2022-08-07T11:42:48.112Z,29.51
2022-08-07T11:44:11.748Z,29.49
2022-08-07T11:44:52.493Z,29.47
2022-08-07T11:45:53.089Z,29.35
2022-08-07T11:46:48.668Z,29.33
2022-08-07T11:47:56.438Z,29.33
2022-08-07T11:49:28.600Z,29.17
2022-08-07T11:50:11.406Z,29.07
2022-08-07T11:50:57.356Z,29.07
2022-08-07T11:51:47.996Z,29.08
2022-08-07T11:52:46.963Z,29.07
2022-08-07T11:54:00.656Z,29.12
2022-08-07T11:54:54.521Z,29.20
2022-08-07T11:56:14.045Z,29.15
2022-08-07T11:56:53.160Z,29.12
2022-08-07T11:57:58.494Z,29.12
2022-08-07T11:58:49.595Z,29.10
2022-08-07T12:00:11.953Z,29.07
2022-08-07T12:00:53.637Z,28.92
2022-08-07T12:02:00.815Z,28.82
2022-08-07T12:02:52.710Z,28.92
2022-08-07T12:03:47.947Z,29.03
2022-08-07T12:04:46.824Z,28.98
2022-08-07T12:05:48.865Z,28.97
2022-08-07T12:06:56.214Z,28.88
2022-08-07T12:07:53.637Z,28.82
2022-08-07T12:08:47.794Z,28.87
2022-08-07T12:09:46.810Z,28.91
2022-08-07T12:10:46.737Z,28.89
2022-08-07T12:12:09.122Z,28.95
2022-08-07T12:12:47.707Z,28.94
2022-08-07T12:13:47.715Z,28.97
2022-08-07T12:14:55.761Z,28.98
2022-08-07T12:16:06.733Z,29.03
2022-08-07T12:16:47.661Z,29.05
2022-08-07T12:17:58.809Z,29.12
2022-08-07T12:18:47.666Z,29.25
2022-08-07T12:20:03.294Z,29.27
2022-08-07T12:20:49.279Z,29.33
2022-08-07T12:21:56.007Z,29.39
2022-08-07T12:22:58.446Z,29.39
2022-08-07T12:24:06.789Z,29.47
2022-08-07T12:24:52.411Z,29.49
2022-08-07T12:26:22.141Z,29.47
2022-08-07T12:26:49.233Z,29.48
2022-08-07T12:28:08.979Z,29.44
2022-08-07T12:28:49.729Z,29.39
2022-08-07T12:29:47.515Z,29.32
2022-08-07T12:30:47.071Z,29.33
2022-08-07T12:32:01.547Z,29.32
2022-08-07T12:32:49.120Z,29.33
2022-08-07T12:33:56.534Z,29.45
2022-08-07T12:34:49.393Z,29.48
2022-08-07T12:35:48.060Z,29.41
2022-08-07T12:36:49.586Z,29.36
2022-08-07T12:38:11.596Z,29.26
2022-08-07T12:38:57.488Z,29.18
2022-08-07T12:39:50.498Z,29.05
2022-08-07T12:40:48.612Z,28.79
2022-08-07T12:41:51.487Z,28.72
2022-08-07T12:42:55.192Z,28.69
2022-08-07T12:44:02.255Z,28.76
2022-08-07T12:44:47.322Z,28.82
2022-08-07T12:45:50.289Z,28.87
2022-08-07T12:46:47.300Z,28.92
2022-08-07T12:47:46.277Z,29.03
2022-08-07T12:48:52.937Z,29.15
2022-08-07T12:49:51.255Z,29.21
2022-08-07T12:50:48.945Z,29.15
2022-08-07T12:51:51.340Z,29.10
2022-08-07T12:52:47.217Z,29.05
2022-08-07T12:54:03.210Z,29.02
2022-08-07T12:54:54.673Z,29.00
2022-08-07T12:56:03.406Z,29.05
2022-08-07T12:56:50.767Z,29.08
2022-08-07T12:58:00.842Z,29.14
2022-08-07T12:58:53.242Z,29.21